createdAt,value
2023-02-26T00:00:10.091Z,0.6
2023-02-26T00:19:28.361Z,0.6
2023-02-26T00:38:47.424Z,0.5
2023-02-26T00:58:04.125Z,0.3
2023-02-26T01:17:23.239Z,0.3
2023-02-26T01:36:41.880Z,-0.1
2023-02-26T01:56:01.004Z,-0.3
2023-02-26T02:15:19.502Z,-0.2
2023-02-26T02:34:36.860Z,-0.5
2023-02-26T02:53:54.326Z,-0.5
2023-02-26T03:13:13.909Z,-0.3
2023-02-26T03:32:34.798Z,-0.5
2023-02-26T03:51:53.213Z,-0.4
2023-02-26T04:11:11.443Z,-0.6
2023-02-26T04:30:30.056Z,-0.4
2023-02-26T04:49:49.524Z,-0.4
2023-02-26T05:09:07.990Z,-0.5
2023-02-26T05:28:26.257Z,-0.7
2023-02-26T05:47:43.139Z,-0.9
2023-02-26T06:07:01.236Z,-1.2
2023-02-26T06:26:23.841Z,-0.9
2023-02-26T06:45:42.731Z,-0.8
2023-02-26T07:05:00.843Z,-0.8
2023-02-26T07:24:20.144Z,-0.7
2023-02-26T07:43:40.573Z,-0.2
2023-02-26T08:03:00.004Z,0
2023-02-26T08:22:20.744Z,0.3
2023-02-26T08:41:39.877Z,1.3
2023-02-26T09:01:00.692Z,1
2023-02-26T09:20:23.164Z,1.6
2023-02-26T09:39:45.080Z,2.5
2023-02-26T09:59:11.433Z,3.9
2023-02-26T10:18:21.151Z,2.2
2023-02-26T10:37:38.702Z,1.7
2023-02-26T10:56:58.392Z,2
2023-02-26T11:16:19.355Z,2.3
2023-02-26T11:35:37.194Z,2.5
2023-02-26T11:54:55.236Z,3.3
2023-02-26T12:14:12.660Z,2.9
2023-02-26T12:33:34.667Z,3.6
2023-02-26T12:52:51.209Z,3.8
2023-02-26T13:12:12.174Z,3.8
2023-02-26T13:31:28.611Z,3.1
2023-02-26T13:50:49.360Z,3.6
2023-02-26T14:10:05.489Z,3.8
2023-02-26T14:29:26.786Z,4
2023-02-26T14:48:46.065Z,4
2023-02-26T15:08:03.659Z,3.5
2023-02-26T15:27:23.027Z,3.3
2023-02-26T15:46:41.424Z,3.2
2023-02-26T16:05:59.345Z,3.2
2023-02-26T16:25:17.441Z,2.9
2023-02-26T16:44:34.546Z,2.6
2023-02-26T17:03:51.621Z,2
2023-02-26T17:23:09.069Z,1.9
2023-02-26T17:42:25.126Z,1.6
2023-02-26T18:01:48.268Z,1.2
2023-02-26T18:20:58.659Z,1.1
2023-02-26T18:40:17.004Z,0.9
2023-02-26T18:59:35.274Z,0.6
2023-02-26T19:18:51.489Z,0.4
2023-02-26T19:38:09.991Z,0.5
2023-02-26T19:57:25.040Z,0.3
2023-02-26T20:16:44.963Z,0
2023-02-26T20:36:04.066Z,-0.1
2023-02-26T20:55:23.537Z,0.1
2023-02-26T21:14:43.014Z,0.3
2023-02-26T21:34:17.210Z,-0.1
2023-02-26T21:53:30.624Z,-0.2
2023-02-26T22:12:48.871Z,-0.4
2023-02-26T22:32:05.493Z,-0.6
2023-02-26T22:51:23.068Z,-0.7
2023-02-26T23:10:40.723Z,-0.9
2023-02-26T23:29:57.540Z,-1.2
2023-02-26T23:49:17.476Z,-1.3
